createdAt,value
2019-02-20T00:00:14.632Z,-2.63
2019-02-20T00:01:14.702Z,-2.62
2019-02-20T00:02:14.978Z,-2.62
2019-02-20T00:03:15.251Z,-2.66
2019-02-20T00:04:14.512Z,-2.70
2019-02-20T00:05:14.778Z,-2.70
2019-02-20T00:06:15.055Z,-2.70
2019-02-20T00:07:15.336Z,-2.73
2019-02-20T00:08:14.601Z,-2.74
2019-02-20T00:09:14.872Z,-2.67
2019-02-20T00:10:15.152Z,-2.63
2019-02-20T00:11:15.204Z,-2.54
2019-02-20T00:12:14.468Z,-2.60
2019-02-20T00:13:15.052Z,-2.59
2019-02-20T00:14:15.314Z,-2.59
2019-02-20T00:15:14.584Z,-2.56
2019-02-20T00:16:14.845Z,-2.54
2019-02-20T00:17:15.111Z,-2.54
2019-02-20T00:18:14.380Z,-2.56
2019-02-20T00:19:14.646Z,-2.67
2019-02-20T00:20:14.914Z,-2.60
2019-02-20T00:21:14.963Z,-2.62
2019-02-20T00:22:15.241Z,-2.64
2019-02-20T00:23:14.506Z,-2.64
2019-02-20T00:24:14.771Z,-2.63
2019-02-20T00:25:15.047Z,-2.73
2019-02-20T00:26:15.301Z,-2.80
2019-02-20T00:27:14.569Z,-2.80
2019-02-20T00:28:14.852Z,-2.81
2019-02-20T00:29:15.121Z,-2.67
2019-02-20T00:30:14.415Z,-2.66
2019-02-20T00:31:14.450Z,-2.69
2019-02-20T00:32:14.724Z,-2.64
2019-02-20T00:33:15.001Z,-2.71
2019-02-20T00:34:15.270Z,-2.87
2019-02-20T00:35:14.540Z,-2.85
2019-02-20T00:36:14.801Z,-2.82
2019-02-20T00:37:15.066Z,-2.70
2019-02-20T00:38:14.349Z,-2.69
2019-02-20T00:39:14.652Z,-2.70
2019-02-20T00:40:14.929Z,-2.67
2019-02-20T00:41:14.971Z,-2.67
2019-02-20T00:42:15.233Z,-2.66
2019-02-20T00:43:14.503Z,-2.67
2019-02-20T00:44:14.763Z,-2.64
2019-02-20T00:45:15.033Z,-2.64
2019-02-20T00:46:15.310Z,-2.66
2019-02-20T00:47:14.575Z,-2.63
2019-02-20T00:48:14.841Z,-2.67
2019-02-20T00:49:15.118Z,-2.71
2019-02-20T00:50:14.388Z,-2.71
2019-02-20T00:51:14.447Z,-2.69
2019-02-20T00:52:14.713Z,-2.70
2019-02-20T00:53:14.979Z,-2.80
2019-02-20T00:54:15.250Z,-2.78
2019-02-20T00:55:14.532Z,-2.80
2019-02-20T00:56:14.809Z,-2.78
2019-02-20T00:57:15.086Z,-2.71
2019-02-20T00:58:14.392Z,-2.71
2019-02-20T00:59:16.755Z,-2.69
2019-02-20T01:00:15.286Z,-2.73
2019-02-20T01:01:15.322Z,-2.71
2019-02-20T01:02:14.595Z,-2.71
2019-02-20T01:03:14.861Z,-2.69
2019-02-20T01:04:15.132Z,-2.69
2019-02-20T01:05:14.406Z,-2.73
2019-02-20T01:06:14.671Z,-2.73
2019-02-20T01:07:14.937Z,-2.73
2019-02-20T01:08:15.210Z,-2.67
2019-02-20T01:09:14.482Z,-2.82
2019-02-20T01:10:14.782Z,-2.81
2019-02-20T01:11:14.791Z,-2.85
2019-02-20T01:12:15.051Z,-2.90
2019-02-20T01:13:15.309Z,-2.94
2019-02-20T01:14:14.580Z,-2.95
2019-02-20T01:15:14.854Z,-2.98
2019-02-20T01:16:15.154Z,-2.97
2019-02-20T01:17:14.427Z,-2.91
2019-02-20T01:18:14.770Z,-2.91
2019-02-20T01:19:15.046Z,-2.91
2019-02-20T01:20:15.329Z,-2.90
2019-02-20T01:21:14.357Z,-2.82
2019-02-20T01:22:14.628Z,-2.85
2019-02-20T01:23:14.885Z,-2.81
2019-02-20T01:24:15.169Z,-2.60
2019-02-20T01:25:14.445Z,-2.63
2019-02-20T01:26:14.710Z,-2.62
2019-02-20T01:27:14.982Z,-2.62
2019-02-20T01:28:15.251Z,-2.66
2019-02-20T01:29:14.526Z,-2.92
2019-02-20T01:30:14.815Z,-3.13
2019-02-20T01:31:14.833Z,-3.13
2019-02-20T01:32:15.102Z,-2.95
2019-02-20T01:33:16.454Z,-2.76
2019-02-20T01:34:14.890Z,-2.76
2019-02-20T01:35:15.165Z,-2.76
2019-02-20T01:36:14.429Z,-2.69
2019-02-20T01:37:14.688Z,-2.80
2019-02-20T01:38:14.963Z,-2.81
2019-02-20T01:39:15.223Z,-2.81
2019-02-20T01:40:14.498Z,-3.00
2019-02-20T01:41:14.556Z,-3.12
2019-02-20T01:42:14.813Z,-3.09
2019-02-20T01:43:15.096Z,-3.15
2019-02-20T01:44:14.371Z,-3.09
2019-02-20T01:45:14.962Z,-2.92
2019-02-20T01:46:15.227Z,-2.90
2019-02-20T01:47:14.495Z,-2.97
2019-02-20T01:48:14.758Z,-2.82
2019-02-20T01:49:15.056Z,-2.74
2019-02-20T01:50:15.340Z,-2.85
2019-02-20T01:51:14.934Z,-2.91
2019-02-20T01:52:15.207Z,-3.01
2019-02-20T01:53:14.471Z,-3.13
2019-02-20T01:54:14.734Z,-3.05
2019-02-20T01:55:15.040Z,-3.09
2019-02-20T01:56:15.310Z,-3.02
2019-02-20T01:57:14.570Z,-3.02
2019-02-20T01:58:14.850Z,-3.00
2019-02-20T01:59:15.112Z,-3.09
2019-02-20T02:00:14.395Z,-3.02
2019-02-20T02:01:14.446Z,-3.04
2019-02-20T02:02:14.720Z,-2.98
2019-02-20T02:03:14.987Z,-2.97
2019-02-20T02:04:15.249Z,-2.97
2019-02-20T02:05:15.566Z,-2.94
2019-02-20T02:06:15.280Z,-2.90
2019-02-20T02:07:14.543Z,-2.92
2019-02-20T02:08:14.807Z,-2.88
2019-02-20T02:09:15.078Z,-2.88
2019-02-20T02:10:14.357Z,-2.98
2019-02-20T02:11:14.395Z,-2.98
2019-02-20T02:12:14.654Z,-3.02
2019-02-20T02:13:14.921Z,-2.97
2019-02-20T02:14:15.179Z,-2.95
2019-02-20T02:15:20.402Z,-2.92
2019-02-20T02:16:15.130Z,-2.80
2019-02-20T02:17:14.391Z,-2.76
2019-02-20T02:18:14.654Z,-2.73
2019-02-20T02:19:14.926Z,-2.80
2019-02-20T02:20:15.202Z,-2.81
2019-02-20T02:21:15.262Z,-2.69
2019-02-20T02:22:14.527Z,-2.67
2019-02-20T02:23:19.783Z,-2.69
2019-02-20T02:24:14.444Z,-2.64
2019-02-20T02:25:14.712Z,-2.67
2019-02-20T02:26:14.984Z,-2.74
2019-02-20T02:27:15.262Z,-2.78
2019-02-20T02:28:14.529Z,-2.78
2019-02-20T02:29:14.793Z,-2.77
2019-02-20T02:30:15.082Z,-2.81
2019-02-20T02:31:15.126Z,-2.90
2019-02-20T02:32:14.407Z,-2.85
2019-02-20T02:33:14.707Z,-2.76
2019-02-20T02:34:14.970Z,-2.77
2019-02-20T02:35:15.267Z,-2.80
2019-02-20T02:36:14.561Z,-2.76
2019-02-20T02:37:14.832Z,-2.74
2019-02-20T02:38:15.107Z,-2.62
2019-02-20T02:39:14.365Z,-2.63
2019-02-20T02:40:14.646Z,-2.59
2019-02-20T02:41:14.674Z,-2.66
2019-02-20T02:42:14.940Z,-2.66
2019-02-20T02:43:15.210Z,-2.60
2019-02-20T02:44:14.492Z,-2.53
2019-02-20T02:45:14.775Z,-2.54
2019-02-20T02:46:15.051Z,-2.56
2019-02-20T02:47:15.332Z,-2.59
2019-02-20T02:48:14.613Z,-2.67
2019-02-20T02:49:14.874Z,-2.71
2019-02-20T02:50:15.185Z,-2.78
2019-02-20T02:51:15.171Z,-2.80
2019-02-20T02:52:14.444Z,-2.80
2019-02-20T02:53:14.709Z,-2.85
2019-02-20T02:54:14.995Z,-2.82
2019-02-20T02:55:15.271Z,-2.87
2019-02-20T02:56:14.533Z,-2.82
2019-02-20T02:57:14.815Z,-2.82
2019-02-20T02:58:15.088Z,-2.80
2019-02-20T02:59:14.368Z,-2.69
2019-02-20T03:00:14.633Z,-2.71
2019-02-20T03:01:14.704Z,-2.73
2019-02-20T03:02:14.965Z,-2.84
2019-02-20T03:03:15.246Z,-2.98
2019-02-20T03:04:14.520Z,-3.12
2019-02-20T03:05:14.808Z,-3.12
2019-02-20T03:06:14.478Z,-3.13
2019-02-20T03:07:14.744Z,-3.23
2019-02-20T03:08:15.017Z,-3.15
2019-02-20T03:09:15.282Z,-3.13
2019-02-20T03:10:14.563Z,-3.02
2019-02-20T03:11:14.624Z,-3.05
2019-02-20T03:12:14.900Z,-3.05
2019-02-20T03:13:15.173Z,-3.19
2019-02-20T03:14:14.447Z,-3.21
2019-02-20T03:15:14.725Z,-3.16
2019-02-20T03:16:14.994Z,-3.12
2019-02-20T03:17:15.256Z,-3.12
2019-02-20T03:18:14.501Z,-3.13
2019-02-20T03:19:14.770Z,-3.11
2019-02-20T03:20:15.052Z,-3.12
2019-02-20T03:21:15.094Z,-3.07
2019-02-20T03:22:14.333Z,-3.09
2019-02-20T03:23:14.605Z,-3.21
2019-02-20T03:24:14.882Z,-3.35
2019-02-20T03:25:15.167Z,-3.39
2019-02-20T03:26:14.438Z,-3.44
2019-02-20T03:27:14.705Z,-3.50
2019-02-20T03:28:14.971Z,-3.49
2019-02-20T03:29:15.260Z,-3.50
2019-02-20T03:30:14.548Z,-3.39
2019-02-20T03:31:14.596Z,-3.37
2019-02-20T03:32:14.898Z,-3.36
2019-02-20T03:33:15.191Z,-3.28
2019-02-20T03:34:14.471Z,-3.21
2019-02-20T03:35:14.740Z,-3.01
2019-02-20T03:36:15.019Z,-2.98
2019-02-20T03:37:15.296Z,-3.00
2019-02-20T03:38:14.563Z,-2.95
2019-02-20T03:39:14.842Z,-2.92
2019-02-20T03:40:15.127Z,-2.91
2019-02-20T03:41:15.160Z,-2.92
2019-02-20T03:42:14.428Z,-2.94
2019-02-20T03:43:14.696Z,-2.97
2019-02-20T03:44:14.964Z,-2.95
2019-02-20T03:45:15.253Z,-2.94
2019-02-20T03:46:14.520Z,-2.91
2019-02-20T03:47:14.785Z,-2.88
2019-02-20T03:48:15.047Z,-2.88
2019-02-20T03:49:15.342Z,-2.87
2019-02-20T03:50:14.641Z,-2.88
2019-02-20T03:51:14.710Z,-2.88
2019-02-20T03:52:14.981Z,-2.94
2019-02-20T03:53:15.241Z,-3.00
2019-02-20T03:54:14.507Z,-3.04
2019-02-20T03:55:14.746Z,-3.08
2019-02-20T03:56:15.007Z,-3.04
2019-02-20T03:57:15.256Z,-3.07
2019-02-20T03:58:14.514Z,-3.04
2019-02-20T03:59:14.775Z,-3.04
2019-02-20T04:00:15.064Z,-3.04
2019-02-20T04:01:15.101Z,-3.01
2019-02-20T04:02:14.617Z,-2.97
2019-02-20T04:03:14.885Z,-2.92
2019-02-20T04:04:15.155Z,-2.91
2019-02-20T04:05:14.421Z,-3.01
2019-02-20T04:06:14.979Z,-3.01
2019-02-20T04:07:15.242Z,-3.08
2019-02-20T04:08:14.507Z,-3.12
2019-02-20T04:09:14.809Z,-3.11
2019-02-20T04:10:15.123Z,-3.08
2019-02-20T04:11:15.169Z,-3.07
2019-02-20T04:12:14.412Z,-3.07
2019-02-20T04:13:14.674Z,-3.05
2019-02-20T04:14:14.947Z,-3.05
2019-02-20T04:15:15.210Z,-3.07
2019-02-20T04:16:14.483Z,-3.05
2019-02-20T04:17:14.747Z,-3.02
2019-02-20T04:18:15.023Z,-3.04
2019-02-20T04:19:15.283Z,-3.01
2019-02-20T04:20:14.540Z,-2.95
2019-02-20T04:21:14.597Z,-2.94
2019-02-20T04:22:14.860Z,-2.92
2019-02-20T04:23:15.116Z,-2.91
2019-02-20T04:24:14.382Z,-2.87
2019-02-20T04:25:14.671Z,-2.87
2019-02-20T04:26:14.923Z,-2.82
2019-02-20T04:27:15.190Z,-2.87
2019-02-20T04:28:14.439Z,-2.98
2019-02-20T04:29:14.703Z,-3.02
2019-02-20T04:30:14.991Z,-3.04
2019-02-20T04:31:15.028Z,-3.00
2019-02-20T04:32:15.269Z,-2.94
2019-02-20T04:33:14.539Z,-2.97
2019-02-20T04:34:14.816Z,-2.98
2019-02-20T04:35:15.097Z,-2.95
2019-02-20T04:36:14.375Z,-2.98
2019-02-20T04:37:14.646Z,-2.95
2019-02-20T04:38:14.909Z,-2.91
2019-02-20T04:39:15.174Z,-2.85
2019-02-20T04:40:14.428Z,-2.84
2019-02-20T04:41:14.493Z,-2.84
2019-02-20T04:42:14.961Z,-2.81
2019-02-20T04:43:15.226Z,-2.66
2019-02-20T04:44:14.499Z,-2.62
2019-02-20T04:45:14.782Z,-2.66
2019-02-20T04:46:15.024Z,-2.62
2019-02-20T04:47:15.282Z,-2.64
2019-02-20T04:48:14.558Z,-2.69
2019-02-20T04:49:14.820Z,-2.64
2019-02-20T04:50:15.094Z,-2.66
2019-02-20T04:51:15.127Z,-2.70
2019-02-20T04:52:14.415Z,-2.71
2019-02-20T04:53:14.668Z,-2.74
2019-02-20T04:54:14.915Z,-2.77
2019-02-20T04:55:15.187Z,-2.77
2019-02-20T04:56:14.476Z,-2.78
2019-02-20T04:57:15.020Z,-2.78
2019-02-20T04:58:15.282Z,-2.81
2019-02-20T04:59:14.558Z,-2.82
2019-02-20T05:00:14.854Z,-2.84
2019-02-20T05:01:14.904Z,-2.90
2019-02-20T05:02:15.173Z,-3.02
2019-02-20T05:03:14.429Z,-3.00
2019-02-20T05:04:14.714Z,-3.05
2019-02-20T05:05:14.978Z,-3.07
2019-02-20T05:06:15.243Z,-3.05
2019-02-20T05:07:14.516Z,-3.07
2019-02-20T05:08:14.789Z,-3.07
2019-02-20T05:09:15.064Z,-3.02
2019-02-20T05:10:14.354Z,-2.98
2019-02-20T05:11:14.357Z,-2.95
2019-02-20T05:12:14.626Z,-3.04
2019-02-20T05:13:14.886Z,-3.01
2019-02-20T05:14:15.155Z,-2.95
2019-02-20T05:15:14.454Z,-2.94
2019-02-20T05:16:14.722Z,-2.85
2019-02-20T05:17:14.982Z,-2.88
2019-02-20T05:18:15.249Z,-2.92
2019-02-20T05:19:14.519Z,-2.94
2019-02-20T05:20:14.782Z,-3.00
2019-02-20T05:21:14.863Z,-3.01
2019-02-20T05:22:15.131Z,-2.97
2019-02-20T05:23:14.420Z,-2.94
2019-02-20T05:24:23.961Z,-2.92
2019-02-20T05:25:14.572Z,-2.91
2019-02-20T05:26:14.839Z,-2.94
2019-02-20T05:27:15.107Z,-2.91
2019-02-20T05:28:14.388Z,-2.90
2019-02-20T05:29:14.654Z,-2.87
2019-02-20T05:30:15.198Z,-2.85
2019-02-20T05:31:16.531Z,-2.82
2019-02-20T05:32:15.004Z,-2.81
2019-02-20T05:33:15.278Z,-2.71
2019-02-20T05:34:14.544Z,-2.67
2019-02-20T05:35:14.812Z,-2.64
2019-02-20T05:36:15.143Z,-2.62
2019-02-20T05:37:14.429Z,-2.56
2019-02-20T05:38:14.707Z,-2.53
2019-02-20T05:39:14.969Z,-2.54
2019-02-20T05:40:15.246Z,-2.54
2019-02-20T05:41:15.290Z,-2.64
2019-02-20T05:42:14.552Z,-2.67
2019-02-20T05:43:14.859Z,-2.67
2019-02-20T05:44:15.131Z,-2.69
2019-02-20T05:45:14.437Z,-2.64
2019-02-20T05:46:14.765Z,-2.67
2019-02-20T05:47:15.036Z,-2.69
2019-02-20T05:48:15.304Z,-2.71
2019-02-20T05:49:14.573Z,-2.71
2019-02-20T05:50:14.845Z,-2.67
2019-02-20T05:51:14.896Z,-2.73
2019-02-20T05:52:15.137Z,-2.64
2019-02-20T05:53:14.408Z,-2.63
2019-02-20T05:54:14.720Z,-2.56
2019-02-20T05:55:14.998Z,-2.53
2019-02-20T05:56:15.249Z,-2.49
2019-02-20T05:57:14.519Z,-2.50
2019-02-20T05:58:14.799Z,-2.48
2019-02-20T05:59:15.062Z,-2.42
2019-02-20T06:00:15.327Z,-2.42
2019-02-20T06:01:14.385Z,-2.41
2019-02-20T06:02:14.649Z,-2.31
2019-02-20T06:03:14.910Z,-2.27
2019-02-20T06:04:15.185Z,-2.35
2019-02-20T06:05:14.455Z,-2.39
2019-02-20T06:06:14.726Z,-2.41
2019-02-20T06:07:15.016Z,-2.52
2019-02-20T06:08:15.281Z,-2.59
2019-02-20T06:09:14.553Z,-2.64
2019-02-20T06:10:14.843Z,-2.67
2019-02-20T06:11:15.523Z,-2.67
2019-02-20T06:12:14.965Z,-2.78
2019-02-20T06:13:15.222Z,-2.80
2019-02-20T06:14:14.504Z,-2.81
2019-02-20T06:15:14.769Z,-2.80
2019-02-20T06:16:15.038Z,-2.76
2019-02-20T06:17:15.327Z,-2.73
2019-02-20T06:18:14.585Z,-2.71
2019-02-20T06:19:14.847Z,-2.73
2019-02-20T06:20:15.129Z,-2.77
2019-02-20T06:21:16.366Z,-2.77
2019-02-20T06:22:14.850Z,-2.81
2019-02-20T06:23:15.140Z,-2.81
2019-02-20T06:24:14.416Z,-2.78
2019-02-20T06:25:14.727Z,-2.76
2019-02-20T06:26:15.039Z,-2.76
2019-02-20T06:27:15.330Z,-2.73
2019-02-20T06:28:14.595Z,-2.73
2019-02-20T06:29:14.853Z,-2.69
2019-02-20T06:30:15.148Z,-2.64
2019-02-20T06:31:15.159Z,-2.66
2019-02-20T06:32:14.418Z,-2.59
2019-02-20T06:33:14.704Z,-2.59
2019-02-20T06:34:14.970Z,-2.53
2019-02-20T06:35:15.263Z,-2.48
2019-02-20T06:36:14.547Z,-2.41
2019-02-20T06:37:14.820Z,-2.43
2019-02-20T06:38:15.084Z,-2.49
2019-02-20T06:39:14.361Z,-2.46
2019-02-20T06:40:14.639Z,-2.38
2019-02-20T06:41:14.701Z,-2.33
2019-02-20T06:42:15.051Z,-2.29
2019-02-20T06:43:14.327Z,-2.15
2019-02-20T06:44:14.595Z,-2.14
2019-02-20T06:45:14.861Z,-2.04
2019-02-20T06:46:15.125Z,-1.98
2019-02-20T06:47:14.401Z,-1.98
2019-02-20T06:48:14.715Z,-1.98
2019-02-20T06:49:15.008Z,-1.84
2019-02-20T06:50:15.284Z,-1.85
2019-02-20T06:51:14.370Z,-1.83
2019-02-20T06:52:14.663Z,-1.81
2019-02-20T06:53:14.943Z,-1.76
2019-02-20T06:54:15.210Z,-1.74
2019-02-20T06:55:14.486Z,-1.71
2019-02-20T06:56:14.750Z,-1.71
2019-02-20T06:57:15.021Z,-1.64
2019-02-20T06:58:14.413Z,-1.62
2019-02-20T06:59:14.682Z,-1.56
2019-02-20T07:00:14.973Z,-1.53
2019-02-20T07:01:15.001Z,-1.53
2019-02-20T07:02:15.271Z,-1.57
2019-02-20T07:03:14.548Z,-1.57
2019-02-20T07:04:14.839Z,-1.53
2019-02-20T07:05:15.133Z,-1.46
2019-02-20T07:06:14.394Z,-1.45
2019-02-20T07:07:14.651Z,-1.47
2019-02-20T07:08:14.907Z,-1.47
2019-02-20T07:09:15.293Z,-1.46
2019-02-20T07:10:14.647Z,-1.46
2019-02-20T07:11:14.662Z,-1.47
2019-02-20T07:12:14.921Z,-1.38
2019-02-20T07:13:14.355Z,-1.47
2019-02-20T07:14:14.615Z,-1.50
2019-02-20T07:15:14.891Z,-1.46
2019-02-20T07:16:15.162Z,-1.35
2019-02-20T07:17:14.433Z,-1.25
2019-02-20T07:18:14.705Z,-1.18
2019-02-20T07:19:14.968Z,-1.15
2019-02-20T07:20:15.226Z,-1.19
2019-02-20T07:21:15.293Z,-1.26
2019-02-20T07:22:14.567Z,-1.31
2019-02-20T07:23:14.828Z,-1.29
2019-02-20T07:24:15.110Z,-1.28
2019-02-20T07:25:14.390Z,-1.24
2019-02-20T07:26:14.683Z,-1.24
2019-02-20T07:27:14.942Z,-1.19
2019-02-20T07:28:15.226Z,-1.19
2019-02-20T07:29:14.492Z,-1.14
2019-02-20T07:30:14.768Z,-1.08
2019-02-20T07:31:14.823Z,-1.07
2019-02-20T07:32:15.094Z,-0.98
2019-02-20T07:33:14.353Z,-0.94
2019-02-20T07:34:14.621Z,-0.91
2019-02-20T07:35:14.924Z,-0.87
2019-02-20T07:36:15.185Z,-0.82
2019-02-20T07:37:14.456Z,-0.80
2019-02-20T07:38:14.725Z,-0.74
2019-02-20T07:39:14.999Z,-0.73
2019-02-20T07:40:15.277Z,-0.61
2019-02-20T07:41:15.307Z,-0.56
2019-02-20T07:42:14.565Z,-0.52
2019-02-20T07:43:14.828Z,-0.46
2019-02-20T07:44:15.098Z,-0.43
2019-02-20T07:45:14.363Z,-0.38
2019-02-20T07:46:14.628Z,-0.36
2019-02-20T07:47:14.888Z,-0.33
2019-02-20T07:48:15.145Z,-0.29
2019-02-20T07:49:14.410Z,-0.21
2019-02-20T07:50:14.673Z,-0.21
2019-02-20T07:51:14.940Z,-0.17
2019-02-20T07:52:15.267Z,-0.15
2019-02-20T07:53:14.537Z,-0.12
2019-02-20T07:54:14.799Z,-0.10
2019-02-20T07:55:15.072Z,-0.07
2019-02-20T07:56:14.340Z,0.03
2019-02-20T07:57:14.614Z,0.06
2019-02-20T07:58:14.887Z,0.09
2019-02-20T07:59:15.148Z,0.13
2019-02-20T08:00:14.437Z,0.16
2019-02-20T08:01:14.496Z,0.20
2019-02-20T08:02:14.769Z,0.27
2019-02-20T08:03:15.040Z,0.33
2019-02-20T08:04:15.313Z,0.37
2019-02-20T08:05:14.599Z,0.38
2019-02-20T08:06:14.864Z,0.41
2019-02-20T08:07:15.160Z,0.45
2019-02-20T08:08:14.419Z,0.45
2019-02-20T08:09:14.693Z,0.45
2019-02-20T08:10:14.965Z,0.47
2019-02-20T08:11:15.020Z,0.47
2019-02-20T08:12:15.300Z,0.48
2019-02-20T08:13:14.575Z,0.53
2019-02-20T08:14:14.844Z,0.55
2019-02-20T08:15:15.118Z,0.57
2019-02-20T08:16:14.382Z,0.60
2019-02-20T08:17:14.641Z,0.64
2019-02-20T08:18:14.904Z,0.60
2019-02-20T08:19:15.182Z,0.63
2019-02-20T08:20:14.453Z,0.65
2019-02-20T08:21:14.505Z,0.69
2019-02-20T08:22:14.784Z,0.71
2019-02-20T08:23:15.050Z,0.71
2019-02-20T08:24:14.349Z,0.69
2019-02-20T08:25:22.409Z,0.72
2019-02-20T08:26:14.553Z,0.76
2019-02-20T08:27:14.833Z,0.76
2019-02-20T08:28:15.158Z,0.81
2019-02-20T08:29:14.424Z,0.79
2019-02-20T08:30:14.703Z,0.85
2019-02-20T08:31:14.772Z,0.86
2019-02-20T08:32:15.035Z,0.82
2019-02-20T08:33:14.325Z,0.89
2019-02-20T08:34:14.589Z,0.89
2019-02-20T08:35:14.860Z,0.92
2019-02-20T08:36:15.149Z,0.93
2019-02-20T08:37:14.411Z,0.93
2019-02-20T08:38:14.681Z,0.98
2019-02-20T08:39:14.951Z,0.98
2019-02-20T08:40:15.238Z,1.02
2019-02-20T08:41:15.298Z,1.03
2019-02-20T08:42:14.573Z,1.02
2019-02-20T08:43:14.837Z,1.09
2019-02-20T08:44:15.104Z,1.09
2019-02-20T08:45:14.362Z,1.13
2019-02-20T08:46:14.640Z,1.15
2019-02-20T08:47:14.912Z,1.19
2019-02-20T08:48:15.181Z,1.19
2019-02-20T08:49:14.447Z,1.19
2019-02-20T08:50:16.670Z,1.19
2019-02-20T08:51:14.797Z,1.19
2019-02-20T08:52:15.069Z,1.30
2019-02-20T08:53:14.374Z,1.29
2019-02-20T08:54:14.665Z,1.34
2019-02-20T08:55:14.946Z,1.44
2019-02-20T08:56:15.219Z,1.46
2019-02-20T08:57:14.476Z,1.48
2019-02-20T08:58:14.738Z,1.62
2019-02-20T08:59:15.009Z,1.67
2019-02-20T09:00:15.289Z,1.77
2019-02-20T09:01:15.322Z,1.78
2019-02-20T09:02:14.579Z,1.82
2019-02-20T09:03:14.848Z,1.90
2019-02-20T09:04:15.110Z,1.98
2019-02-20T09:05:14.394Z,1.98
2019-02-20T09:06:14.660Z,1.98
2019-02-20T09:07:14.940Z,2.07
2019-02-20T09:08:15.204Z,2.13
2019-02-20T09:09:14.471Z,2.24
2019-02-20T09:10:17.058Z,2.27
2019-02-20T09:11:14.800Z,2.26
2019-02-20T09:12:15.066Z,2.36
2019-02-20T09:13:14.343Z,2.40
2019-02-20T09:14:14.613Z,2.38
2019-02-20T09:15:14.907Z,2.43
2019-02-20T09:16:15.201Z,2.50
2019-02-20T09:17:14.469Z,2.64
2019-02-20T09:18:14.728Z,2.68
2019-02-20T09:19:14.997Z,2.69
2019-02-20T09:20:15.280Z,2.81
2019-02-20T09:21:14.339Z,2.88
2019-02-20T09:22:14.607Z,2.93
2019-02-20T09:23:14.877Z,2.93
2019-02-20T09:24:15.146Z,2.92
2019-02-20T09:25:19.692Z,2.99
2019-02-20T09:26:14.507Z,3.00
2019-02-20T09:27:14.792Z,3.14
2019-02-20T09:28:15.056Z,3.22
2019-02-20T09:29:15.320Z,3.16
2019-02-20T09:30:14.622Z,3.19
2019-02-20T09:31:14.667Z,3.27
2019-02-20T09:32:14.931Z,3.40
2019-02-20T09:33:15.185Z,3.44
2019-02-20T09:34:14.445Z,3.47
2019-02-20T09:35:14.722Z,3.55
2019-02-20T09:36:14.991Z,3.55
2019-02-20T09:37:15.268Z,3.60
2019-02-20T09:38:14.535Z,3.65
2019-02-20T09:39:14.798Z,3.77
2019-02-20T09:40:15.081Z,3.81
2019-02-20T09:41:15.111Z,3.77
2019-02-20T09:42:14.377Z,3.72
2019-02-20T09:43:15.024Z,3.60
2019-02-20T09:44:15.285Z,3.58
2019-02-20T09:45:14.562Z,3.60
2019-02-20T09:46:14.827Z,3.67
2019-02-20T09:47:15.082Z,3.81
2019-02-20T09:48:14.350Z,3.75
2019-02-20T09:49:14.623Z,3.86
2019-02-20T09:50:14.904Z,3.96
2019-02-20T09:51:14.947Z,4.00
2019-02-20T09:52:15.220Z,4.02
2019-02-20T09:53:14.490Z,4.00
2019-02-20T09:54:14.754Z,4.03
2019-02-20T09:55:15.026Z,3.99
2019-02-20T09:56:16.150Z,4.09
2019-02-20T09:57:14.627Z,4.05
2019-02-20T09:58:14.900Z,4.06
2019-02-20T09:59:15.168Z,4.12
2019-02-20T10:00:14.436Z,4.12
2019-02-20T10:01:14.494Z,4.21
2019-02-20T10:02:14.767Z,4.20
2019-02-20T10:03:15.040Z,4.19
2019-02-20T10:04:15.312Z,4.16
2019-02-20T10:05:14.586Z,4.19
2019-02-20T10:06:14.877Z,4.26
2019-02-20T10:07:15.149Z,4.30
2019-02-20T10:08:14.422Z,4.33
2019-02-20T10:09:16.253Z,4.31
2019-02-20T10:10:14.649Z,4.33
2019-02-20T10:11:14.699Z,4.46
2019-02-20T10:12:14.967Z,4.51
2019-02-20T10:13:15.251Z,4.71
2019-02-20T10:14:14.520Z,4.72
2019-02-20T10:15:14.837Z,4.78
2019-02-20T10:16:15.120Z,4.82
2019-02-20T10:17:14.393Z,4.98
2019-02-20T10:18:14.658Z,5.05
2019-02-20T10:19:14.934Z,4.92
2019-02-20T10:20:15.222Z,4.89
2019-02-20T10:21:17.104Z,4.93
2019-02-20T10:22:14.550Z,5.09
2019-02-20T10:23:14.820Z,5.12
2019-02-20T10:24:15.087Z,5.14
2019-02-20T10:25:14.362Z,5.19
2019-02-20T10:26:14.658Z,5.38
2019-02-20T10:27:14.931Z,5.47
2019-02-20T10:28:15.212Z,5.48
2019-02-20T10:29:14.510Z,5.52
2019-02-20T10:30:14.784Z,5.58
2019-02-20T10:31:14.829Z,5.58
2019-02-20T10:32:15.094Z,5.68
2019-02-20T10:33:14.393Z,5.84
2019-02-20T10:34:14.659Z,5.86
2019-02-20T10:35:14.929Z,5.50
2019-02-20T10:36:15.198Z,5.57
2019-02-20T10:37:14.471Z,5.57
2019-02-20T10:38:14.749Z,5.64
2019-02-20T10:39:15.013Z,5.68
2019-02-20T10:40:15.295Z,5.79
2019-02-20T10:41:14.337Z,5.65
2019-02-20T10:42:14.646Z,5.58
2019-02-20T10:43:14.909Z,5.70
2019-02-20T10:44:15.174Z,5.74
2019-02-20T10:45:14.455Z,5.72
2019-02-20T10:46:14.714Z,5.78
2019-02-20T10:47:14.976Z,5.78
2019-02-20T10:48:15.256Z,5.84
2019-02-20T10:49:14.526Z,5.84
2019-02-20T10:50:14.797Z,5.86
2019-02-20T10:51:14.840Z,5.89
2019-02-20T10:52:15.113Z,5.93
2019-02-20T10:53:14.382Z,5.85
2019-02-20T10:54:14.656Z,5.89
2019-02-20T10:55:14.932Z,5.92
2019-02-20T10:56:15.201Z,5.95
2019-02-20T10:57:14.477Z,5.96
2019-02-20T10:58:14.740Z,6.09
2019-02-20T10:59:15.018Z,6.00
2019-02-20T11:00:23.339Z,6.06
2019-02-20T11:01:14.366Z,6.05
2019-02-20T11:02:14.629Z,6.08
2019-02-20T11:03:14.898Z,6.17
2019-02-20T11:04:15.154Z,6.19
2019-02-20T11:05:14.431Z,6.16
2019-02-20T11:06:14.706Z,6.16
2019-02-20T11:07:14.974Z,6.24
2019-02-20T11:08:15.245Z,6.23
2019-02-20T11:09:14.507Z,6.31
2019-02-20T11:10:14.787Z,6.30
2019-02-20T11:11:14.834Z,6.34
2019-02-20T11:12:15.103Z,6.26
2019-02-20T11:13:14.370Z,6.31
2019-02-20T11:14:14.638Z,6.27
2019-02-20T11:15:14.915Z,6.12
2019-02-20T11:16:15.184Z,6.20
2019-02-20T11:17:14.463Z,6.30
2019-02-20T11:18:14.727Z,6.34
2019-02-20T11:19:15.667Z,6.36
2019-02-20T11:20:15.029Z,6.30
2019-02-20T11:21:15.081Z,6.30
2019-02-20T11:22:14.346Z,6.40
2019-02-20T11:23:14.609Z,6.52
2019-02-20T11:24:14.870Z,6.58
2019-02-20T11:25:15.142Z,6.71
2019-02-20T11:26:18.057Z,6.75
2019-02-20T11:27:15.035Z,6.65
2019-02-20T11:28:15.297Z,6.82
2019-02-20T11:29:14.561Z,6.88
2019-02-20T11:30:14.830Z,6.88
2019-02-20T11:31:14.876Z,6.79
2019-02-20T11:32:15.143Z,6.75
2019-02-20T11:33:14.410Z,6.69
2019-02-20T11:34:14.683Z,6.79
2019-02-20T11:35:14.968Z,6.91
2019-02-20T11:36:15.247Z,6.98
2019-02-20T11:37:14.512Z,6.95
2019-02-20T11:38:14.779Z,6.76
2019-02-20T11:39:15.052Z,6.88
2019-02-20T11:40:14.346Z,7.05
2019-02-20T11:41:14.409Z,7.06
2019-02-20T11:42:14.680Z,7.06
2019-02-20T11:43:14.951Z,7.05
2019-02-20T11:44:20.762Z,7.05
2019-02-20T11:45:14.620Z,7.03
2019-02-20T11:46:14.870Z,7.13
2019-02-20T11:47:15.126Z,7.02
2019-02-20T11:48:14.390Z,6.96
2019-02-20T11:49:14.659Z,6.96
2019-02-20T11:50:14.960Z,7.05
2019-02-20T11:51:14.975Z,7.07
2019-02-20T11:52:15.245Z,7.23
2019-02-20T11:53:14.509Z,7.20
2019-02-20T11:54:14.776Z,7.27
2019-02-20T11:55:15.046Z,7.23
2019-02-20T11:56:15.311Z,7.27
2019-02-20T11:57:14.568Z,7.31
2019-02-20T11:58:14.834Z,7.33
2019-02-20T11:59:15.101Z,7.40
2019-02-20T12:00:14.372Z,7.47
2019-02-20T12:01:14.431Z,7.53
2019-02-20T12:02:14.691Z,7.53
2019-02-20T12:03:14.963Z,7.64
2019-02-20T12:04:15.246Z,7.64
2019-02-20T12:05:14.509Z,7.86
2019-02-20T12:06:14.797Z,7.88
2019-02-20T12:07:15.070Z,7.77
2019-02-20T12:08:14.335Z,7.82
2019-02-20T12:09:14.601Z,7.91
2019-02-20T12:10:14.877Z,7.82
2019-02-20T12:11:14.938Z,7.80
2019-02-20T12:12:15.195Z,7.82
2019-02-20T12:13:14.470Z,7.85
2019-02-20T12:14:14.794Z,7.91
2019-02-20T12:15:15.070Z,7.92
2019-02-20T12:16:14.335Z,8.06
2019-02-20T12:17:14.598Z,7.93
2019-02-20T12:18:17.287Z,7.89
2019-02-20T12:19:14.941Z,7.89
2019-02-20T12:20:15.219Z,7.96
2019-02-20T12:21:15.283Z,8.10
2019-02-20T12:22:14.553Z,8.19
2019-02-20T12:23:14.841Z,8.20
2019-02-20T12:24:15.107Z,8.23
2019-02-20T12:25:14.369Z,8.34
2019-02-20T12:26:14.638Z,8.51
2019-02-20T12:27:14.905Z,8.54
2019-02-20T12:28:15.189Z,8.61
2019-02-20T12:29:14.450Z,8.76
2019-02-20T12:30:15.074Z,8.91
2019-02-20T12:31:15.105Z,9.17
2019-02-20T12:32:14.370Z,9.26
2019-02-20T12:33:14.642Z,9.27
2019-02-20T12:34:14.906Z,9.29
2019-02-20T12:35:15.195Z,9.27
2019-02-20T12:36:14.464Z,8.98
2019-02-20T12:37:14.730Z,9.02
2019-02-20T12:38:14.996Z,8.98
2019-02-20T12:39:15.245Z,8.84
2019-02-20T12:40:14.525Z,8.91
2019-02-20T12:41:14.569Z,9.00
2019-02-20T12:42:14.843Z,9.16
2019-02-20T12:43:15.113Z,9.17
2019-02-20T12:44:14.674Z,9.37
2019-02-20T12:45:14.976Z,9.38
2019-02-20T12:46:15.246Z,9.37
2019-02-20T12:47:14.518Z,9.41
2019-02-20T12:48:14.789Z,9.33
2019-02-20T12:49:15.057Z,9.26
2019-02-20T12:50:14.329Z,9.33
2019-02-20T12:51:14.368Z,9.43
2019-02-20T12:52:14.631Z,9.31
2019-02-20T12:53:14.905Z,9.34
2019-02-20T12:54:15.199Z,9.29
2019-02-20T12:55:14.458Z,9.27
2019-02-20T12:56:14.728Z,9.40
2019-02-20T12:57:14.982Z,9.15
2019-02-20T12:58:15.257Z,9.16
2019-02-20T12:59:14.533Z,9.20
2019-02-20T13:00:14.837Z,9.26
2019-02-20T13:01:14.870Z,9.13
2019-02-20T13:02:15.137Z,9.16